sensor_id;sensor_type;location;lat;lon;timestamp;P1;durP1;ratioP1;P2;durP2;ratioP2
2868;SDS011;1442;47.448;8.582;2022-11-15T00:00:45;10.45;;;6.78;;
2868;SDS011;1442;47.448;8.582;2022-11-15T00:03:13;20.65;;;7.28;;
2868;SDS011;1442;47.448;8.582;2022-11-15T00:05:40;10.40;;;6.65;;
2868;SDS011;1442;47.448;8.582;2022-11-15T00:08:08;22.05;;;6.72;;
2868;SDS011;1442;47.448;8.582;2022-11-15T00:10:35;35.28;;;7.05;;
2868;SDS011;1442;47.448;8.582;2022-11-15T00:13:04;55.45;;;7.10;;
2868;SDS011;1442;47.448;8.582;2022-11-15T00:15:32;9.98;;;6.72;;
2868;SDS011;1442;47.448;8.582;2022-11-15T00:18:00;49.45;;;6.95;;
2868;SDS011;1442;47.448;8.582;2022-11-15T00:20:27;20.02;;;6.95;;
2868;SDS011;1442;47.448;8.582;2022-11-15T00:22:55;17.60;;;6.30;;
2868;SDS011;1442;47.448;8.582;2022-11-15T00:25:22;21.27;;;6.35;;
2868;SDS011;1442;47.448;8.582;2022-11-15T00:27:49;19.50;;;5.60;;
2868;SDS011;1442;47.448;8.582;2022-11-15T00:30:16;16.50;;;6.75;;
2868;SDS011;1442;47.448;8.582;2022-11-15T00:32:45;10.55;;;5.78;;
2868;SDS011;1442;47.448;8.582;2022-11-15T00:35:12;9.45;;;5.60;;
2868;SDS011;1442;47.448;8.582;2022-11-15T00:37:39;7.47;;;4.63;;
2868;SDS011;1442;47.448;8.582;2022-11-15T00:40:07;7.38;;;4.70;;
2868;SDS011;1442;47.448;8.582;2022-11-15T00:42:34;8.20;;;4.80;;
2868;SDS011;1442;47.448;8.582;2022-11-15T00:45:01;8.82;;;4.45;;
2868;SDS011;1442;47.448;8.582;2022-11-15T00:47:28;6.43;;;4.65;;
2868;SDS011;1442;47.448;8.582;2022-11-15T00:49:57;5.32;;;4.35;;
2868;SDS011;1442;47.448;8.582;2022-11-15T00:52:24;8.30;;;5.55;;
2868;SDS011;1442;47.448;8.582;2022-11-15T00:54:51;7.22;;;4.72;;
2868;SDS011;1442;47.448;8.582;2022-11-15T00:57:18;6.15;;;4.40;;
2868;SDS011;1442;47.448;8.582;2022-11-15T00:59:46;6.90;;;4.78;;
2868;SDS011;1442;47.448;8.582;2022-11-15T01:02:13;6.63;;;4.85;;
2868;SDS011;1442;47.448;8.582;2022-11-15T01:04:40;8.25;;;4.78;;
2868;SDS011;1442;47.448;8.582;2022-11-15T01:07:08;5.75;;;3.72;;
2868;SDS011;1442;47.448;8.582;2022-11-15T01:09:36;5.93;;;4.75;;
2868;SDS011;1442;47.448;8.582;2022-11-15T01:12:03;6.00;;;4.38;;
2868;SDS011;1442;47.448;8.582;2022-11-15T01:14:30;7.00;;;5.10;;
2868;SDS011;1442;47.448;8.582;2022-11-15T01:16:58;6.20;;;4.53;;
2868;SDS011;1442;47.448;8.582;2022-11-15T01:19:25;6.70;;;4.93;;
2868;SDS011;1442;47.448;8.582;2022-11-15T01:21:52;6.45;;;5.00;;
2868;SDS011;1442;47.448;8.582;2022-11-15T01:24:20;6.72;;;5.45;;
2868;SDS011;1442;47.448;8.582;2022-11-15T01:26:48;6.10;;;4.80;;
2868;SDS011;1442;47.448;8.582;2022-11-15T01:29:15;6.53;;;4.90;;
2868;SDS011;1442;47.448;8.582;2022-11-15T01:31:42;7.57;;;5.38;;
2868;SDS011;1442;47.448;8.582;2022-11-15T01:34:09;8.07;;;5.57;;
2868;SDS011;1442;47.448;8.582;2022-11-15T01:36:36;7.55;;;5.60;;
2868;SDS011;1442;47.448;8.582;2022-11-15T01:39:03;8.07;;;5.53;;
2868;SDS011;1442;47.448;8.582;2022-11-15T01:41:32;6.07;;;5.00;;
2868;SDS011;1442;47.448;8.582;2022-11-15T01:46:42;6.90;;;5.28;;
2868;SDS011;1442;47.448;8.582;2022-11-15T01:49:12;5.82;;;4.10;;
2868;SDS011;1442;47.448;8.582;2022-11-15T01:51:39;4.75;;;4.05;;
2868;SDS011;1442;47.448;8.582;2022-11-15T01:54:08;4.93;;;3.88;;
2868;SDS011;1442;47.448;8.582;2022-11-15T01:56:38;4.10;;;3.45;;
2868;SDS011;1442;47.448;8.582;2022-11-15T01:59:08;4.25;;;3.80;;
2868;SDS011;1442;47.448;8.582;2022-11-15T02:01:35;4.68;;;3.05;;
2868;SDS011;1442;47.448;8.582;2022-11-15T02:04:04;3.20;;;2.90;;
2868;SDS011;1442;47.448;8.582;2022-11-15T02:06:33;4.50;;;3.53;;
2868;SDS011;1442;47.448;8.582;2022-11-15T02:09:02;6.50;;;3.60;;
2868;SDS011;1442;47.448;8.582;2022-11-15T02:11:29;4.45;;;2.95;;
2868;SDS011;1442;47.448;8.582;2022-11-15T02:13:58;4.78;;;3.95;;
2868;SDS011;1442;47.448;8.582;2022-11-15T02:16:27;4.18;;;3.25;;
2868;SDS011;1442;47.448;8.582;2022-11-15T02:18:59;4.57;;;3.33;;
2868;SDS011;1442;47.448;8.582;2022-11-15T02:21:31;5.05;;;3.17;;
2868;SDS011;1442;47.448;8.582;2022-11-15T02:26:56;6.70;;;3.50;;
2868;SDS011;1442;47.448;8.582;2022-11-15T02:29:30;7.13;;;4.75;;
2868;SDS011;1442;47.448;8.582;2022-11-15T02:32:03;6.45;;;4.70;;
2868;SDS011;1442;47.448;8.582;2022-11-15T02:34:32;7.28;;;5.53;;
2868;SDS011;1442;47.448;8.582;2022-11-15T02:37:02;9.30;;;5.80;;
2868;SDS011;1442;47.448;8.582;2022-11-15T02:39:32;10.88;;;5.63;;
2868;SDS011;1442;47.448;8.582;2022-11-15T02:42:02;6.50;;;5.03;;
2868;SDS011;1442;47.448;8.582;2022-11-15T02:44:50;9.82;;;5.05;;
2868;SDS011;1442;47.448;8.582;2022-11-15T02:47:18;7.32;;;5.07;;
2868;SDS011;1442;47.448;8.582;2022-11-15T02:49:47;6.03;;;4.78;;
2868;SDS011;1442;47.448;8.582;2022-11-15T02:52:15;7.05;;;5.50;;
2868;SDS011;1442;47.448;8.582;2022-11-15T02:54:43;10.48;;;5.75;;
2868;SDS011;1442;47.448;8.582;2022-11-15T02:57:19;7.53;;;5.20;;
2868;SDS011;1442;47.448;8.582;2022-11-15T03:00:03;6.63;;;5.00;;
2868;SDS011;1442;47.448;8.582;2022-11-15T03:02:36;8.10;;;4.40;;
2868;SDS011;1442;47.448;8.582;2022-11-15T03:05:09;6.25;;;4.40;;
2868;SDS011;1442;47.448;8.582;2022-11-15T03:07:40;7.47;;;4.20;;
2868;SDS011;1442;47.448;8.582;2022-11-15T03:10:10;4.35;;;3.88;;
2868;SDS011;1442;47.448;8.582;2022-11-15T03:12:40;7.50;;;4.88;;
2868;SDS011;1442;47.448;8.582;2022-11-15T03:15:10;8.88;;;5.30;;
2868;SDS011;1442;47.448;8.582;2022-11-15T03:17:41;7.30;;;4.55;;
2868;SDS011;1442;47.448;8.582;2022-11-15T03:20:10;8.93;;;5.38;;
2868;SDS011;1442;47.448;8.582;2022-11-15T03:22:39;7.10;;;5.28;;
2868;SDS011;1442;47.448;8.582;2022-11-15T03:25:08;7.55;;;5.50;;
2868;SDS011;1442;47.448;8.582;2022-11-15T03:27:37;8.23;;;6.15;;
2868;SDS011;1442;47.448;8.582;2022-11-15T03:30:07;10.68;;;5.40;;
2868;SDS011;1442;47.448;8.582;2022-11-15T03:32:35;12.05;;;6.05;;
2868;SDS011;1442;47.448;8.582;2022-11-15T03:35:06;14.32;;;6.60;;
2868;SDS011;1442;47.448;8.582;2022-11-15T03:37:36;9.55;;;5.80;;
2868;SDS011;1442;47.448;8.582;2022-11-15T03:40:04;8.18;;;5.93;;
2868;SDS011;1442;47.448;8.582;2022-11-15T03:42:32;7.40;;;5.75;;
2868;SDS011;1442;47.448;8.582;2022-11-15T03:45:05;6.30;;;5.43;;
2868;SDS011;1442;47.448;8.582;2022-11-15T03:47:38;7.68;;;5.25;;
2868;SDS011;1442;47.448;8.582;2022-11-15T03:50:08;8.98;;;5.50;;
2868;SDS011;1442;47.448;8.582;2022-11-15T03:52:37;5.78;;;4.32;;
2868;SDS011;1442;47.448;8.582;2022-11-15T03:55:07;8.73;;;5.72;;
2868;SDS011;1442;47.448;8.582;2022-11-15T03:57:34;18.50;;;5.95;;
2868;SDS011;1442;47.448;8.582;2022-11-15T04:00:02;8.25;;;5.80;;
2868;SDS011;1442;47.448;8.582;2022-11-15T04:02:29;11.27;;;6.07;;
2868;SDS011;1442;47.448;8.582;2022-11-15T04:04:56;9.02;;;6.22;;
2868;SDS011;1442;47.448;8.582;2022-11-15T04:07:25;7.30;;;5.63;;
2868;SDS011;1442;47.448;8.582;2022-11-15T04:09:52;6.25;;;5.10;;
2868;SDS011;1442;47.448;8.582;2022-11-15T04:12:28;6.72;;;5.13;;
2868;SDS011;1442;47.448;8.582;2022-11-15T04:14:59;6.78;;;4.00;;
2868;SDS011;1442;47.448;8.582;2022-11-15T04:17:36;5.45;;;4.43;;
2868;SDS011;1442;47.448;8.582;2022-11-15T04:20:04;6.00;;;4.30;;
2868;SDS011;1442;47.448;8.582;2022-11-15T04:22:52;6.60;;;5.10;;
2868;SDS011;1442;47.448;8.582;2022-11-15T04:25:38;6.53;;;4.40;;
2868;SDS011;1442;47.448;8.582;2022-11-15T04:28:05;7.30;;;3.75;;
2868;SDS011;1442;47.448;8.582;2022-11-15T04:30:32;5.97;;;3.83;;
2868;SDS011;1442;47.448;8.582;2022-11-15T04:32:59;7.05;;;3.63;;
2868;SDS011;1442;47.448;8.582;2022-11-15T04:35:26;7.47;;;4.25;;
2868;SDS011;1442;47.448;8.582;2022-11-15T04:37:55;5.10;;;4.20;;
2868;SDS011;1442;47.448;8.582;2022-11-15T04:40:21;6.40;;;4.63;;
2868;SDS011;1442;47.448;8.582;2022-11-15T04:42:48;7.25;;;4.80;;
2868;SDS011;1442;47.448;8.582;2022-11-15T04:45:15;5.60;;;4.55;;
2868;SDS011;1442;47.448;8.582;2022-11-15T04:47:43;6.20;;;4.47;;
2868;SDS011;1442;47.448;8.582;2022-11-15T04:50:11;6.38;;;4.47;;
2868;SDS011;1442;47.448;8.582;2022-11-15T04:52:39;6.45;;;4.72;;
2868;SDS011;1442;47.448;8.582;2022-11-15T04:55:07;7.13;;;5.05;;
2868;SDS011;1442;47.448;8.582;2022-11-15T04:57:35;6.97;;;4.53;;
2868;SDS011;1442;47.448;8.582;2022-11-15T05:00:03;6.38;;;4.50;;
2868;SDS011;1442;47.448;8.582;2022-11-15T05:02:30;7.28;;;4.90;;
2868;SDS011;1442;47.448;8.582;2022-11-15T05:05:11;10.13;;;5.60;;
2868;SDS011;1442;47.448;8.582;2022-11-15T05:07:38;9.73;;;5.13;;
2868;SDS011;1442;47.448;8.582;2022-11-15T05:10:05;12.05;;;5.78;;
2868;SDS011;1442;47.448;8.582;2022-11-15T05:12:34;8.38;;;5.10;;
2868;SDS011;1442;47.448;8.582;2022-11-15T05:15:01;7.20;;;5.20;;
2868;SDS011;1442;47.448;8.582;2022-11-15T05:17:28;8.25;;;5.25;;
2868;SDS011;1442;47.448;8.582;2022-11-15T05:19:55;6.47;;;4.97;;
2868;SDS011;1442;47.448;8.582;2022-11-15T05:22:22;10.32;;;4.60;;
2868;SDS011;1442;47.448;8.582;2022-11-15T05:24:49;10.50;;;4.80;;
2868;SDS011;1442;47.448;8.582;2022-11-15T05:27:16;7.80;;;4.65;;
2868;SDS011;1442;47.448;8.582;2022-11-15T05:29:45;5.93;;;4.68;;
2868;SDS011;1442;47.448;8.582;2022-11-15T05:32:12;5.72;;;4.55;;
2868;SDS011;1442;47.448;8.582;2022-11-15T05:34:40;5.80;;;4.25;;
2868;SDS011;1442;47.448;8.582;2022-11-15T05:37:07;8.60;;;4.53;;
2868;SDS011;1442;47.448;8.582;2022-11-15T05:39:34;7.47;;;3.90;;
2868;SDS011;1442;47.448;8.582;2022-11-15T05:42:02;5.63;;;4.03;;
2868;SDS011;1442;47.448;8.582;2022-11-15T05:44:31;6.97;;;4.85;;
2868;SDS011;1442;47.448;8.582;2022-11-15T05:47:00;7.05;;;4.20;;
2868;SDS011;1442;47.448;8.582;2022-11-15T05:49:28;4.63;;;3.53;;
2868;SDS011;1442;47.448;8.582;2022-11-15T05:51:56;6.10;;;5.03;;
2868;SDS011;1442;47.448;8.582;2022-11-15T05:54:24;4.85;;;3.83;;
2868;SDS011;1442;47.448;8.582;2022-11-15T05:56:51;6.45;;;4.50;;
2868;SDS011;1442;47.448;8.582;2022-11-15T05:59:19;6.20;;;4.03;;
2868;SDS011;1442;47.448;8.582;2022-11-15T06:01:47;6.78;;;4.25;;
2868;SDS011;1442;47.448;8.582;2022-11-15T06:04:15;7.03;;;5.38;;
2868;SDS011;1442;47.448;8.582;2022-11-15T06:06:42;6.18;;;4.22;;
2868;SDS011;1442;47.448;8.582;2022-11-15T06:09:09;7.15;;;4.07;;
2868;SDS011;1442;47.448;8.582;2022-11-15T06:11:37;6.15;;;3.80;;
2868;SDS011;1442;47.448;8.582;2022-11-15T06:14:04;7.70;;;4.00;;
2868;SDS011;1442;47.448;8.582;2022-11-15T06:16:31;5.47;;;4.50;;
2868;SDS011;1442;47.448;8.582;2022-11-15T06:18:58;7.00;;;4.38;;
2868;SDS011;1442;47.448;8.582;2022-11-15T06:21:26;6.53;;;4.35;;
2868;SDS011;1442;47.448;8.582;2022-11-15T06:23:54;6.95;;;4.70;;
2868;SDS011;1442;47.448;8.582;2022-11-15T06:26:21;10.48;;;4.22;;
2868;SDS011;1442;47.448;8.582;2022-11-15T06:28:48;6.50;;;4.28;;
2868;SDS011;1442;47.448;8.582;2022-11-15T06:31:15;8.82;;;4.80;;
2868;SDS011;1442;47.448;8.582;2022-11-15T06:33:42;11.30;;;4.78;;
2868;SDS011;1442;47.448;8.582;2022-11-15T06:36:10;6.97;;;3.97;;
2868;SDS011;1442;47.448;8.582;2022-11-15T06:38:39;6.70;;;4.18;;
2868;SDS011;1442;47.448;8.582;2022-11-15T06:41:07;9.77;;;5.22;;
2868;SDS011;1442;47.448;8.582;2022-11-15T06:43:35;8.23;;;4.57;;
2868;SDS011;1442;47.448;8.582;2022-11-15T06:46:03;11.07;;;5.07;;
2868;SDS011;1442;47.448;8.582;2022-11-15T06:48:31;9.05;;;4.55;;
2868;SDS011;1442;47.448;8.582;2022-11-15T06:50:59;7.90;;;4.70;;
2868;SDS011;1442;47.448;8.582;2022-11-15T06:53:26;7.40;;;4.10;;
2868;SDS011;1442;47.448;8.582;2022-11-15T06:55:56;6.47;;;4.22;;
2868;SDS011;1442;47.448;8.582;2022-11-15T06:58:24;8.90;;;3.42;;
2868;SDS011;1442;47.448;8.582;2022-11-15T07:00:52;7.45;;;3.72;;
2868;SDS011;1442;47.448;8.582;2022-11-15T07:03:19;9.77;;;3.63;;
2868;SDS011;1442;47.448;8.582;2022-11-15T07:05:50;6.30;;;3.47;;
2868;SDS011;1442;47.448;8.582;2022-11-15T07:08:18;7.35;;;3.85;;
2868;SDS011;1442;47.448;8.582;2022-11-15T07:10:45;5.28;;;3.33;;
2868;SDS011;1442;47.448;8.582;2022-11-15T07:13:13;6.55;;;4.00;;
2868;SDS011;1442;47.448;8.582;2022-11-15T07:15:40;11.13;;;4.32;;
2868;SDS011;1442;47.448;8.582;2022-11-15T07:18:08;8.70;;;4.07;;
2868;SDS011;1442;47.448;8.582;2022-11-15T07:20:35;6.68;;;4.57;;
2868;SDS011;1442;47.448;8.582;2022-11-15T07:23:02;8.50;;;5.47;;
2868;SDS011;1442;47.448;8.582;2022-11-15T07:25:29;8.60;;;5.10;;
2868;SDS011;1442;47.448;8.582;2022-11-15T07:27:57;12.00;;;4.95;;
2868;SDS011;1442;47.448;8.582;2022-11-15T07:30:26;6.55;;;4.72;;
2868;SDS011;1442;47.448;8.582;2022-11-15T07:32:53;11.05;;;5.18;;
2868;SDS011;1442;47.448;8.582;2022-11-15T07:35:20;9.32;;;5.80;;
2868;SDS011;1442;47.448;8.582;2022-11-15T07:37:54;12.82;;;7.18;;
2868;SDS011;1442;47.448;8.582;2022-11-15T07:40:21;12.60;;;8.63;;
2868;SDS011;1442;47.448;8.582;2022-11-15T07:42:48;13.75;;;8.50;;
2868;SDS011;1442;47.448;8.582;2022-11-15T07:45:19;14.07;;;9.15;;
2868;SDS011;1442;47.448;8.582;2022-11-15T07:47:47;15.05;;;10.52;;
2868;SDS011;1442;47.448;8.582;2022-11-15T07:50:14;18.02;;;11.73;;
2868;SDS011;1442;47.448;8.582;2022-11-15T07:52:41;22.35;;;13.23;;
2868;SDS011;1442;47.448;8.582;2022-11-15T07:55:08;19.75;;;13.52;;
2868;SDS011;1442;47.448;8.582;2022-11-15T07:57:35;23.58;;;13.18;;
2868;SDS011;1442;47.448;8.582;2022-11-15T08:00:03;26.63;;;13.13;;
2868;SDS011;1442;47.448;8.582;2022-11-15T08:02:31;15.93;;;11.00;;
2868;SDS011;1442;47.448;8.582;2022-11-15T08:04:59;13.05;;;9.07;;
2868;SDS011;1442;47.448;8.582;2022-11-15T08:07:28;13.75;;;8.30;;
2868;SDS011;1442;47.448;8.582;2022-11-15T08:09:56;11.75;;;8.48;;
2868;SDS011;1442;47.448;8.582;2022-11-15T08:12:23;13.43;;;8.25;;
2868;SDS011;1442;47.448;8.582;2022-11-15T08:14:50;10.38;;;6.85;;
2868;SDS011;1442;47.448;8.582;2022-11-15T08:17:17;11.48;;;7.75;;
2868;SDS011;1442;47.448;8.582;2022-11-15T08:19:44;16.30;;;9.05;;
2868;SDS011;1442;47.448;8.582;2022-11-15T08:22:12;16.27;;;9.60;;
2868;SDS011;1442;47.448;8.582;2022-11-15T08:24:40;15.35;;;9.07;;
2868;SDS011;1442;47.448;8.582;2022-11-15T08:27:07;16.35;;;9.13;;
2868;SDS011;1442;47.448;8.582;2022-11-15T08:29:39;15.68;;;10.45;;
2868;SDS011;1442;47.448;8.582;2022-11-15T08:32:06;14.63;;;10.88;;
2868;SDS011;1442;47.448;8.582;2022-11-15T08:34:33;17.45;;;10.93;;
2868;SDS011;1442;47.448;8.582;2022-11-15T08:37:01;13.93;;;10.73;;
2868;SDS011;1442;47.448;8.582;2022-11-15T08:39:29;14.90;;;10.82;;
2868;SDS011;1442;47.448;8.582;2022-11-15T08:41:56;14.23;;;10.70;;
2868;SDS011;1442;47.448;8.582;2022-11-15T08:44:23;14.18;;;10.48;;
2868;SDS011;1442;47.448;8.582;2022-11-15T08:46:50;11.93;;;10.02;;
2868;SDS011;1442;47.448;8.582;2022-11-15T08:49:17;16.08;;;10.18;;
2868;SDS011;1442;47.448;8.582;2022-11-15T08:51:45;16.45;;;10.52;;
2868;SDS011;1442;47.448;8.582;2022-11-15T08:54:12;11.05;;;9.15;;
2868;SDS011;1442;47.448;8.582;2022-11-15T08:56:40;14.88;;;8.43;;
2868;SDS011;1442;47.448;8.582;2022-11-15T08:59:07;9.45;;;7.90;;
2868;SDS011;1442;47.448;8.582;2022-11-15T09:01:34;11.13;;;8.55;;
2868;SDS011;1442;47.448;8.582;2022-11-15T09:04:01;9.93;;;8.27;;
2868;SDS011;1442;47.448;8.582;2022-11-15T09:06:29;10.30;;;8.00;;
2868;SDS011;1442;47.448;8.582;2022-11-15T09:08:56;9.77;;;7.68;;
2868;SDS011;1442;47.448;8.582;2022-11-15T09:11:23;9.30;;;8.20;;
2868;SDS011;1442;47.448;8.582;2022-11-15T09:13:52;15.50;;;8.15;;
2868;SDS011;1442;47.448;8.582;2022-11-15T09:16:20;12.02;;;9.18;;
2868;SDS011;1442;47.448;8.582;2022-11-15T09:18:47;9.60;;;7.95;;
2868;SDS011;1442;47.448;8.582;2022-11-15T09:21:14;9.32;;;7.60;;
2868;SDS011;1442;47.448;8.582;2022-11-15T09:23:41;10.30;;;7.72;;
2868;SDS011;1442;47.448;8.582;2022-11-15T09:26:08;9.52;;;7.80;;
2868;SDS011;1442;47.448;8.582;2022-11-15T09:28:35;8.38;;;7.13;;
2868;SDS011;1442;47.448;8.582;2022-11-15T09:31:05;13.68;;;7.43;;
2868;SDS011;1442;47.448;8.582;2022-11-15T09:33:32;9.20;;;7.15;;
2868;SDS011;1442;47.448;8.582;2022-11-15T09:35:59;8.70;;;6.93;;
2868;SDS011;1442;47.448;8.582;2022-11-15T09:38:27;8.13;;;6.28;;
2868;SDS011;1442;47.448;8.582;2022-11-15T09:40:58;7.57;;;6.20;;
2868;SDS011;1442;47.448;8.582;2022-11-15T09:43:35;8.07;;;6.45;;
2868;SDS011;1442;47.448;8.582;2022-11-15T09:46:09;7.72;;;6.57;;
2868;SDS011;1442;47.448;8.582;2022-11-15T09:48:50;8.10;;;5.85;;
2868;SDS011;1442;47.448;8.582;2022-11-15T09:51:23;8.10;;;6.95;;
2868;SDS011;1442;47.448;8.582;2022-11-15T09:53:52;11.00;;;7.20;;
2868;SDS011;1442;47.448;8.582;2022-11-15T09:56:23;12.82;;;8.23;;
2868;SDS011;1442;47.448;8.582;2022-11-15T09:58:54;9.85;;;8.25;;
2868;SDS011;1442;47.448;8.582;2022-11-15T10:03:51;8.27;;;7.22;;
2868;SDS011;1442;47.448;8.582;2022-11-15T10:06:23;6.45;;;5.82;;
2868;SDS011;1442;47.448;8.582;2022-11-15T10:08:53;11.55;;;6.30;;
2868;SDS011;1442;47.448;8.582;2022-11-15T10:11:22;9.10;;;6.95;;
2868;SDS011;1442;47.448;8.582;2022-11-15T10:13:51;7.60;;;6.57;;
2868;SDS011;1442;47.448;8.582;2022-11-15T10:16:33;10.45;;;6.43;;
2868;SDS011;1442;47.448;8.582;2022-11-15T10:19:07;6.50;;;5.88;;
2868;SDS011;1442;47.448;8.582;2022-11-15T10:21:37;7.57;;;6.63;;
2868;SDS011;1442;47.448;8.582;2022-11-15T10:24:10;9.75;;;6.18;;
2868;SDS011;1442;47.448;8.582;2022-11-15T10:26:37;7.15;;;6.38;;
2868;SDS011;1442;47.448;8.582;2022-11-15T10:29:05;9.38;;;7.32;;
2868;SDS011;1442;47.448;8.582;2022-11-15T10:31:32;10.48;;;6.47;;
2868;SDS011;1442;47.448;8.582;2022-11-15T10:34:00;8.73;;;6.32;;
2868;SDS011;1442;47.448;8.582;2022-11-15T10:36:32;7.05;;;6.30;;
2868;SDS011;1442;47.448;8.582;2022-11-15T10:38:59;9.23;;;7.38;;
2868;SDS011;1442;47.448;8.582;2022-11-15T10:41:30;7.75;;;6.85;;
2868;SDS011;1442;47.448;8.582;2022-11-15T10:44:07;7.85;;;7.05;;
2868;SDS011;1442;47.448;8.582;2022-11-15T10:46:36;9.40;;;7.45;;
2868;SDS011;1442;47.448;8.582;2022-11-15T10:49:11;8.48;;;7.68;;
2868;SDS011;1442;47.448;8.582;2022-11-15T10:51:41;10.37;;;7.73;;
2868;SDS011;1442;47.448;8.582;2022-11-15T10:54:10;8.77;;;7.88;;
2868;SDS011;1442;47.448;8.582;2022-11-15T10:56:38;8.40;;;7.40;;
2868;SDS011;1442;47.448;8.582;2022-11-15T10:59:09;9.13;;;7.85;;
2868;SDS011;1442;47.448;8.582;2022-11-15T11:01:45;11.30;;;8.32;;
2868;SDS011;1442;47.448;8.582;2022-11-15T11:04:12;8.88;;;7.68;;
2868;SDS011;1442;47.448;8.582;2022-11-15T11:06:47;9.90;;;7.25;;
2868;SDS011;1442;47.448;8.582;2022-11-15T11:09:21;8.48;;;7.60;;
2868;SDS011;1442;47.448;8.582;2022-11-15T11:11:49;10.30;;;7.63;;
2868;SDS011;1442;47.448;8.582;2022-11-15T11:14:17;10.38;;;7.55;;
2868;SDS011;1442;47.448;8.582;2022-11-15T11:16:47;10.48;;;7.80;;
2868;SDS011;1442;47.448;8.582;2022-11-15T11:19:23;8.15;;;7.22;;
2868;SDS011;1442;47.448;8.582;2022-11-15T11:21:57;10.52;;;7.22;;
2868;SDS011;1442;47.448;8.582;2022-11-15T11:24:30;9.40;;;7.22;;
2868;SDS011;1442;47.448;8.582;2022-11-15T11:27:05;9.75;;;7.95;;
2868;SDS011;1442;47.448;8.582;2022-11-15T11:29:38;11.05;;;7.63;;
2868;SDS011;1442;47.448;8.582;2022-11-15T11:32:13;11.77;;;8.00;;
2868;SDS011;1442;47.448;8.582;2022-11-15T11:34:47;10.87;;;7.83;;
2868;SDS011;1442;47.448;8.582;2022-11-15T11:37:20;11.85;;;9.00;;
2868;SDS011;1442;47.448;8.582;2022-11-15T11:39:53;10.02;;;8.32;;
2868;SDS011;1442;47.448;8.582;2022-11-15T11:42:26;11.32;;;8.20;;
2868;SDS011;1442;47.448;8.582;2022-11-15T11:44:58;17.88;;;9.27;;
2868;SDS011;1442;47.448;8.582;2022-11-15T11:47:31;12.35;;;8.27;;
2868;SDS011;1442;47.448;8.582;2022-11-15T11:49:59;12.48;;;8.93;;
2868;SDS011;1442;47.448;8.582;2022-11-15T11:52:29;13.45;;;8.88;;
2868;SDS011;1442;47.448;8.582;2022-11-15T11:54:59;10.77;;;9.27;;
2868;SDS011;1442;47.448;8.582;2022-11-15T11:57:33;12.63;;;8.80;;
2868;SDS011;1442;47.448;8.582;2022-11-15T12:00:03;10.70;;;7.80;;
2868;SDS011;1442;47.448;8.582;2022-11-15T12:02:32;10.80;;;7.93;;
2868;SDS011;1442;47.448;8.582;2022-11-15T12:05:03;10.65;;;8.50;;
2868;SDS011;1442;47.448;8.582;2022-11-15T12:07:32;10.00;;;7.85;;
2868;SDS011;1442;47.448;8.582;2022-11-15T12:10:02;11.10;;;7.70;;
2868;SDS011;1442;47.448;8.582;2022-11-15T12:12:31;10.52;;;7.68;;
2868;SDS011;1442;47.448;8.582;2022-11-15T12:15:02;10.50;;;7.30;;
2868;SDS011;1442;47.448;8.582;2022-11-15T12:17:30;9.52;;;7.28;;
2868;SDS011;1442;47.448;8.582;2022-11-15T12:19:58;11.25;;;7.05;;
2868;SDS011;1442;47.448;8.582;2022-11-15T12:22:28;9.23;;;6.70;;
2868;SDS011;1442;47.448;8.582;2022-11-15T12:25:02;8.23;;;6.55;;
2868;SDS011;1442;47.448;8.582;2022-11-15T12:27:32;10.45;;;6.47;;
2868;SDS011;1442;47.448;8.582;2022-11-15T12:30:02;9.32;;;6.00;;
2868;SDS011;1442;47.448;8.582;2022-11-15T12:32:31;8.25;;;5.32;;
2868;SDS011;1442;47.448;8.582;2022-11-15T12:34:59;8.55;;;4.90;;
2868;SDS011;1442;47.448;8.582;2022-11-15T12:37:34;10.52;;;4.57;;
2868;SDS011;1442;47.448;8.582;2022-11-15T12:40:05;8.05;;;4.22;;
2868;SDS011;1442;47.448;8.582;2022-11-15T12:42:57;8.07;;;4.05;;
2868;SDS011;1442;47.448;8.582;2022-11-15T12:45:25;8.00;;;4.10;;
2868;SDS011;1442;47.448;8.582;2022-11-15T12:47:52;11.55;;;4.22;;
2868;SDS011;1442;47.448;8.582;2022-11-15T12:55:51;9.90;;;4.13;;
2868;SDS011;1442;47.448;8.582;2022-11-15T12:58:40;7.20;;;3.80;;
2868;SDS011;1442;47.448;8.582;2022-11-15T13:01:08;8.55;;;3.88;;
2868;SDS011;1442;47.448;8.582;2022-11-15T13:03:35;4.95;;;3.20;;
2868;SDS011;1442;47.448;8.582;2022-11-15T13:06:04;8.20;;;3.75;;
2868;SDS011;1442;47.448;8.582;2022-11-15T13:08:42;5.97;;;3.80;;
2868;SDS011;1442;47.448;8.582;2022-11-15T13:13:59;6.63;;;3.85;;
2868;SDS011;1442;47.448;8.582;2022-11-15T13:16:26;5.67;;;2.97;;
2868;SDS011;1442;47.448;8.582;2022-11-15T13:18:54;4.73;;;3.10;;
2868;SDS011;1442;47.448;8.582;2022-11-15T13:21:22;5.13;;;3.40;;
2868;SDS011;1442;47.448;8.582;2022-11-15T13:24:12;6.72;;;3.30;;
2868;SDS011;1442;47.448;8.582;2022-11-15T13:26:40;4.75;;;3.20;;
2868;SDS011;1442;47.448;8.582;2022-11-15T13:29:16;7.82;;;3.33;;
2868;SDS011;1442;47.448;8.582;2022-11-15T13:31:43;6.63;;;3.08;;
2868;SDS011;1442;47.448;8.582;2022-11-15T13:34:16;5.13;;;3.20;;
2868;SDS011;1442;47.448;8.582;2022-11-15T13:36:45;4.47;;;2.90;;
2868;SDS011;1442;47.448;8.582;2022-11-15T13:39:14;4.38;;;2.97;;
2868;SDS011;1442;47.448;8.582;2022-11-15T13:41:50;5.05;;;3.28;;
2868;SDS011;1442;47.448;8.582;2022-11-15T13:44:20;5.90;;;2.80;;
2868;SDS011;1442;47.448;8.582;2022-11-15T13:46:47;5.13;;;2.80;;
2868;SDS011;1442;47.448;8.582;2022-11-15T13:49:14;5.70;;;3.28;;
2868;SDS011;1442;47.448;8.582;2022-11-15T13:51:43;6.25;;;3.05;;
2868;SDS011;1442;47.448;8.582;2022-11-15T13:54:14;8.83;;;3.10;;
2868;SDS011;1442;47.448;8.582;2022-11-15T13:56:43;3.90;;;3.03;;
2868;SDS011;1442;47.448;8.582;2022-11-15T13:59:13;6.65;;;2.72;;
2868;SDS011;1442;47.448;8.582;2022-11-15T14:01:43;4.70;;;3.05;;
2868;SDS011;1442;47.448;8.582;2022-11-15T14:04:11;6.57;;;2.90;;
2868;SDS011;1442;47.448;8.582;2022-11-15T14:06:44;8.57;;;3.33;;
2868;SDS011;1442;47.448;8.582;2022-11-15T14:09:31;5.85;;;3.13;;
2868;SDS011;1442;47.448;8.582;2022-11-15T14:11:59;6.78;;;3.20;;
2868;SDS011;1442;47.448;8.582;2022-11-15T14:14:26;9.45;;;3.72;;
2868;SDS011;1442;47.448;8.582;2022-11-15T14:16:56;9.18;;;3.30;;
2868;SDS011;1442;47.448;8.582;2022-11-15T14:19:37;9.38;;;3.65;;
2868;SDS011;1442;47.448;8.582;2022-11-15T14:22:11;10.33;;;3.43;;
2868;SDS011;1442;47.448;8.582;2022-11-15T14:24:39;7.05;;;3.10;;
2868;SDS011;1442;47.448;8.582;2022-11-15T14:27:23;6.22;;;3.00;;
2868;SDS011;1442;47.448;8.582;2022-11-15T14:29:51;6.15;;;3.50;;
2868;SDS011;1442;47.448;8.582;2022-11-15T14:32:20;8.38;;;3.47;;
2868;SDS011;1442;47.448;8.582;2022-11-15T14:34:47;8.45;;;3.20;;
2868;SDS011;1442;47.448;8.582;2022-11-15T14:37:18;4.93;;;2.83;;
2868;SDS011;1442;47.448;8.582;2022-11-15T14:39:45;5.95;;;3.30;;
2868;SDS011;1442;47.448;8.582;2022-11-15T14:42:13;8.75;;;3.63;;
2868;SDS011;1442;47.448;8.582;2022-11-15T14:44:40;8.02;;;3.83;;
2868;SDS011;1442;47.448;8.582;2022-11-15T14:47:07;7.00;;;3.33;;
2868;SDS011;1442;47.448;8.582;2022-11-15T14:49:35;8.38;;;3.85;;
2868;SDS011;1442;47.448;8.582;2022-11-15T14:52:04;10.75;;;4.45;;
2868;SDS011;1442;47.448;8.582;2022-11-15T14:54:31;7.45;;;4.63;;
2868;SDS011;1442;47.448;8.582;2022-11-15T14:56:58;6.05;;;4.38;;
2868;SDS011;1442;47.448;8.582;2022-11-15T14:59:26;8.35;;;4.50;;
2868;SDS011;1442;47.448;8.582;2022-11-15T15:01:53;10.43;;;5.22;;
2868;SDS011;1442;47.448;8.582;2022-11-15T15:04:20;9.38;;;4.80;;
2868;SDS011;1442;47.448;8.582;2022-11-15T15:06:48;7.15;;;5.00;;
2868;SDS011;1442;47.448;8.582;2022-11-15T15:09:15;11.05;;;5.38;;
2868;SDS011;1442;47.448;8.582;2022-11-15T15:11:42;9.25;;;5.05;;
2868;SDS011;1442;47.448;8.582;2022-11-15T15:14:14;6.43;;;4.97;;
2868;SDS011;1442;47.448;8.582;2022-11-15T15:16:41;10.95;;;5.20;;
2868;SDS011;1442;47.448;8.582;2022-11-15T15:19:08;9.95;;;4.78;;
2868;SDS011;1442;47.448;8.582;2022-11-15T15:21:35;7.38;;;4.90;;
2868;SDS011;1442;47.448;8.582;2022-11-15T15:24:04;9.80;;;5.65;;
2868;SDS011;1442;47.448;8.582;2022-11-15T15:26:31;7.57;;;5.32;;
2868;SDS011;1442;47.448;8.582;2022-11-15T15:29:01;7.78;;;5.60;;
2868;SDS011;1442;47.448;8.582;2022-11-15T15:31:28;10.10;;;5.75;;
2868;SDS011;1442;47.448;8.582;2022-11-15T15:33:55;9.88;;;6.30;;
2868;SDS011;1442;47.448;8.582;2022-11-15T15:36:22;13.05;;;6.07;;
2868;SDS011;1442;47.448;8.582;2022-11-15T15:38:49;9.10;;;6.22;;